createdAt,value
2018-12-20T00:01:26.853Z,35.40
2018-12-20T00:03:55.784Z,35.40
2018-12-20T00:06:24.806Z,41.33
2018-12-20T00:08:54.168Z,31.90
2018-12-20T00:11:23.370Z,37.47
2018-12-20T00:13:52.825Z,34.90
2018-12-20T00:16:22.537Z,31.23
2018-12-20T00:18:51.711Z,35.80
2018-12-20T00:21:20.692Z,35.23
2018-12-20T00:23:49.988Z,32.07
2018-12-20T00:26:19.514Z,37.27
2018-12-20T00:28:48.799Z,33.33
2018-12-20T00:31:17.945Z,40.53
2018-12-20T00:33:47.231Z,29.50
2018-12-20T00:36:16.697Z,29.77
2018-12-20T00:38:45.833Z,30.73
2018-12-20T00:41:15.650Z,28.67
2018-12-20T00:43:45.038Z,33.30
2018-12-20T00:46:14.463Z,31.23
2018-12-20T00:48:43.673Z,21.63
2018-12-20T00:51:13.844Z,29.10
2018-12-20T00:53:43.056Z,26.07
2018-12-20T00:56:12.148Z,24.97
2018-12-20T00:58:41.466Z,24.03
2018-12-20T01:01:10.670Z,22.43
2018-12-20T01:03:39.891Z,22.80
2018-12-20T01:06:08.989Z,20.30
2018-12-20T01:08:38.646Z,19.67
2018-12-20T01:11:08.375Z,18.60
2018-12-20T01:13:37.489Z,20.97
2018-12-20T01:16:06.693Z,19.50
2018-12-20T01:18:35.927Z,21.37
2018-12-20T01:21:05.289Z,18.97
2018-12-20T01:23:34.683Z,19.80
2018-12-20T01:26:04.101Z,18.37
2018-12-20T01:28:33.198Z,18.17
2018-12-20T01:31:02.687Z,15.77
2018-12-20T01:33:32.123Z,13.83
2018-12-20T01:36:01.234Z,15.87
2018-12-20T01:38:30.280Z,18.00
2018-12-20T01:40:59.363Z,12.67
2018-12-20T01:43:28.770Z,12.80
2018-12-20T01:45:57.911Z,13.43
2018-12-20T01:48:26.880Z,13.33
2018-12-20T01:50:55.803Z,11.03
2018-12-20T01:53:25.030Z,9.77
2018-12-20T01:55:54.970Z,11.37
2018-12-20T01:58:24.251Z,12.50
2018-12-20T02:00:54.268Z,10.83
2018-12-20T02:03:23.752Z,10.87
2018-12-20T02:05:52.808Z,11.67
2018-12-20T02:08:22.810Z,12.33
2018-12-20T02:10:51.869Z,12.73
2018-12-20T02:13:21.082Z,11.47
2018-12-20T02:15:51.171Z,11.97
2018-12-20T02:18:20.396Z,12.67
2018-12-20T02:20:50.071Z,10.90
2018-12-20T02:23:19.380Z,12.27
2018-12-20T02:25:49.127Z,12.00
2018-12-20T02:28:18.226Z,10.93
2018-12-20T02:30:47.535Z,12.03
2018-12-20T02:33:17.424Z,11.23
2018-12-20T02:35:46.764Z,10.63
2018-12-20T02:38:15.806Z,9.50
2018-12-20T02:40:45.126Z,14.27
2018-12-20T02:43:14.520Z,14.07
2018-12-20T02:45:43.873Z,14.60
2018-12-20T02:48:13.056Z,15.23
2018-12-20T02:50:42.283Z,16.97
2018-12-20T02:53:11.774Z,15.70
2018-12-20T02:55:41.778Z,14.73
2018-12-20T02:58:11.032Z,15.20
2018-12-20T03:00:40.180Z,14.93
2018-12-20T03:03:09.933Z,14.67
2018-12-20T03:05:39.310Z,15.77
2018-12-20T03:08:08.616Z,16.53
2018-12-20T03:10:37.916Z,13.43
2018-12-20T03:13:07.917Z,13.10
2018-12-20T03:15:37.022Z,12.57
2018-12-20T03:18:06.202Z,14.13
2018-12-20T03:20:35.619Z,14.37
2018-12-20T03:23:04.727Z,14.83
2018-12-20T03:25:33.825Z,15.27
2018-12-20T03:28:03.696Z,15.50
2018-12-20T03:30:33.032Z,11.50
2018-12-20T03:33:02.259Z,12.40
2018-12-20T03:35:32.003Z,14.23
2018-12-20T03:38:02.161Z,12.97
2018-12-20T03:40:31.580Z,12.23
2018-12-20T03:43:00.833Z,14.40
2018-12-20T03:45:30.092Z,12.90
2018-12-20T03:47:59.396Z,13.60
2018-12-20T03:50:28.700Z,12.97
2018-12-20T03:52:58.172Z,15.70
2018-12-20T03:55:27.351Z,10.97
2018-12-20T03:57:56.611Z,15.40
2018-12-20T04:00:25.861Z,15.93
2018-12-20T04:02:55.429Z,16.20
2018-12-20T04:05:24.630Z,14.47
2018-12-20T04:07:53.918Z,13.57
2018-12-20T04:10:23.816Z,14.47
2018-12-20T04:12:52.836Z,16.87
2018-12-20T04:15:21.835Z,15.50
2018-12-20T04:17:51.038Z,14.93
2018-12-20T04:20:21.155Z,15.43
2018-12-20T04:22:50.482Z,17.07
2018-12-20T04:25:19.659Z,12.53
2018-12-20T04:27:49.045Z,12.50
2018-12-20T04:30:18.512Z,16.20
2018-12-20T04:32:48.021Z,14.93
2018-12-20T04:35:17.158Z,12.83
2018-12-20T04:37:46.677Z,11.80
2018-12-20T04:40:16.016Z,12.80
2018-12-20T04:42:45.304Z,8.30
2018-12-20T04:45:14.730Z,14.00
2018-12-20T04:47:44.912Z,15.83
2018-12-20T04:50:14.093Z,16.43
2018-12-20T04:52:43.123Z,14.60
2018-12-20T04:55:12.699Z,13.90
2018-12-20T04:57:41.939Z,13.37
2018-12-20T05:00:11.921Z,16.17
2018-12-20T05:02:41.215Z,12.70
2018-12-20T05:05:10.351Z,11.00
2018-12-20T05:07:40.210Z,12.67
2018-12-20T05:10:09.570Z,10.90
2018-12-20T05:12:39.592Z,13.27
2018-12-20T05:15:08.638Z,12.50
2018-12-20T05:17:38.390Z,11.03
2018-12-20T05:20:07.656Z,11.20
2018-12-20T05:22:36.630Z,10.83
2018-12-20T05:25:06.703Z,10.77
2018-12-20T05:27:35.783Z,12.43
2018-12-20T05:30:07.786Z,12.33
2018-12-20T05:32:36.984Z,11.33
2018-12-20T05:35:06.224Z,13.50
2018-12-20T05:37:35.529Z,13.97
2018-12-20T05:40:05.947Z,13.67
2018-12-20T05:42:35.018Z,9.97
2018-12-20T05:45:04.825Z,14.00
2018-12-20T05:47:33.843Z,10.83
2018-12-20T05:50:03.921Z,11.10
2018-12-20T05:52:33.056Z,11.97
2018-12-20T05:55:02.398Z,9.40
2018-12-20T05:57:31.652Z,10.13
2018-12-20T06:00:01.067Z,12.50
2018-12-20T06:02:30.368Z,14.30
2018-12-20T06:04:59.592Z,11.37
2018-12-20T06:07:28.997Z,10.20
2018-12-20T06:09:58.139Z,9.93
2018-12-20T06:12:27.207Z,12.73
2018-12-20T06:14:57.103Z,12.83
2018-12-20T06:17:26.082Z,13.53
2018-12-20T06:19:55.689Z,8.90
2018-12-20T06:22:24.833Z,12.37
2018-12-20T06:24:53.975Z,12.67
2018-12-20T06:27:23.111Z,11.53
2018-12-20T06:29:52.087Z,14.37
2018-12-20T06:32:21.282Z,13.00
2018-12-20T06:34:50.384Z,12.17
2018-12-20T06:37:19.343Z,11.43
2018-12-20T06:39:48.828Z,10.27
2018-12-20T06:42:17.943Z,13.20
2018-12-20T06:44:47.036Z,11.50
2018-12-20T06:47:16.187Z,11.10
2018-12-20T06:49:45.179Z,9.50
2018-12-20T06:52:14.182Z,12.27
2018-12-20T06:54:43.273Z,12.30
2018-12-20T06:57:12.166Z,13.60
2018-12-20T06:59:41.929Z,12.20
2018-12-20T07:02:10.982Z,12.97
2018-12-20T07:04:39.943Z,14.23
2018-12-20T07:07:08.909Z,12.93
2018-12-20T07:09:37.919Z,10.83
2018-12-20T07:12:07.066Z,14.93
2018-12-20T07:14:36.163Z,12.37
2018-12-20T07:17:05.135Z,12.43
2018-12-20T07:19:34.258Z,14.40
2018-12-20T07:22:03.459Z,13.07
2018-12-20T07:24:33.100Z,11.77
2018-12-20T07:27:02.782Z,14.93
2018-12-20T07:29:31.737Z,14.63
2018-12-20T07:32:00.643Z,12.17
2018-12-20T07:34:29.607Z,12.83
2018-12-20T07:36:58.598Z,13.33
2018-12-20T07:39:29.635Z,12.53
2018-12-20T07:41:58.703Z,15.07
2018-12-20T07:44:28.320Z,12.17
2018-12-20T07:46:57.503Z,13.57
2018-12-20T07:49:26.714Z,12.70
2018-12-20T07:51:55.811Z,11.60
2018-12-20T07:54:24.767Z,14.90
2018-12-20T07:56:53.804Z,12.43
2018-12-20T07:59:23.543Z,11.37
2018-12-20T08:01:52.921Z,14.00
2018-12-20T08:04:22.122Z,12.03
2018-12-20T08:06:51.427Z,10.10
2018-12-20T08:09:20.525Z,11.83
2018-12-20T08:11:49.799Z,14.53
2018-12-20T08:14:19.031Z,14.07
2018-12-20T08:16:48.124Z,12.20
2018-12-20T08:19:17.429Z,12.87
2018-12-20T08:21:46.629Z,15.73
2018-12-20T08:24:15.625Z,11.10
2018-12-20T08:26:44.927Z,14.57
2018-12-20T08:29:14.027Z,14.03
2018-12-20T08:31:43.107Z,11.97
2018-12-20T08:34:13.043Z,14.90
2018-12-20T08:36:42.732Z,10.77
2018-12-20T08:39:11.751Z,14.10
2018-12-20T08:41:40.839Z,14.13
2018-12-20T08:44:10.172Z,9.67
2018-12-20T08:46:41.339Z,12.63
2018-12-20T08:49:10.394Z,13.07
2018-12-20T08:51:39.391Z,13.37
2018-12-20T08:54:09.002Z,12.77
2018-12-20T08:56:38.508Z,14.83
2018-12-20T08:59:07.648Z,12.97
2018-12-20T09:01:36.666Z,11.00
2018-12-20T09:04:05.803Z,13.33
2018-12-20T09:06:34.905Z,11.30
2018-12-20T09:09:06.353Z,12.50
2018-12-20T09:11:35.453Z,12.20
2018-12-20T09:14:04.856Z,12.50
2018-12-20T09:16:33.852Z,11.33
2018-12-20T09:19:02.935Z,7.83
2018-12-20T09:21:32.152Z,11.87
2018-12-20T09:24:01.475Z,14.37
2018-12-20T09:26:30.668Z,10.07
2018-12-20T09:29:00.060Z,12.27
2018-12-20T09:31:29.282Z,13.27
2018-12-20T09:33:58.358Z,12.27
2018-12-20T09:36:27.455Z,13.77
2018-12-20T09:38:56.759Z,11.33
2018-12-20T09:41:25.857Z,12.57
2018-12-20T09:43:55.059Z,12.60
2018-12-20T09:46:25.077Z,14.90
2018-12-20T09:48:54.278Z,12.83
2018-12-20T09:51:23.415Z,8.80
2018-12-20T09:53:52.575Z,13.40
2018-12-20T09:56:21.777Z,12.00
2018-12-20T09:58:50.978Z,14.90
2018-12-20T10:01:20.180Z,15.73
2018-12-20T10:03:49.174Z,14.20
2018-12-20T10:06:18.378Z,15.73
2018-12-20T10:08:47.474Z,13.17
2018-12-20T10:11:16.980Z,12.00
2018-12-20T10:13:46.182Z,17.17
2018-12-20T10:16:15.689Z,12.10
2018-12-20T10:18:44.786Z,11.73
2018-12-20T10:21:13.782Z,12.10
2018-12-20T10:23:43.014Z,11.60
2018-12-20T10:26:12.085Z,13.13
2018-12-20T10:28:41.589Z,12.33
2018-12-20T10:31:10.660Z,13.57
2018-12-20T10:33:39.771Z,12.70
2018-12-20T10:36:08.860Z,13.63
2018-12-20T10:38:38.084Z,13.77
2018-12-20T10:41:07.080Z,12.57
2018-12-20T10:43:36.055Z,14.00
2018-12-20T10:46:05.033Z,11.97
2018-12-20T10:48:34.376Z,14.67
2018-12-20T10:51:03.781Z,14.80
2018-12-20T10:53:33.087Z,14.50
2018-12-20T10:56:02.181Z,15.43
2018-12-20T10:58:31.559Z,13.93
2018-12-20T11:01:06.247Z,12.93
2018-12-20T11:03:41.551Z,13.03
2018-12-20T11:06:16.891Z,14.30
2018-12-20T11:11:51.927Z,14.73
2018-12-20T11:14:21.023Z,11.93
2018-12-20T11:16:50.123Z,14.37
2018-12-20T11:19:19.324Z,15.33
2018-12-20T11:21:48.526Z,13.83
2018-12-20T11:24:17.731Z,12.87
2018-12-20T11:26:47.028Z,14.23
2018-12-20T11:29:16.227Z,14.77
2018-12-20T11:31:45.429Z,12.77
2018-12-20T11:34:14.424Z,16.13
2018-12-20T11:36:43.380Z,14.13
2018-12-20T11:39:12.519Z,13.37
2018-12-20T11:41:42.332Z,14.17
2018-12-20T11:44:11.330Z,10.67
2018-12-20T11:46:40.939Z,13.23
2018-12-20T11:49:10.651Z,13.70
2018-12-20T11:51:39.607Z,12.83
2018-12-20T11:54:08.711Z,14.70
2018-12-20T11:56:37.842Z,15.37
2018-12-20T11:59:06.839Z,14.57
2018-12-20T12:01:36.550Z,13.53
2018-12-20T12:04:05.854Z,13.80
2018-12-20T12:06:34.850Z,17.63
2018-12-20T12:09:06.404Z,15.63
2018-12-20T12:11:35.364Z,15.50
2018-12-20T12:14:04.498Z,14.00
2018-12-20T12:16:33.625Z,16.07
2018-12-20T12:19:02.735Z,15.43
2018-12-20T12:21:31.793Z,14.80
2018-12-20T12:24:00.788Z,16.50
2018-12-20T12:26:29.787Z,16.23
2018-12-20T12:28:58.780Z,15.57
2018-12-20T12:31:27.982Z,16.67
2018-12-20T12:33:57.795Z,17.30
2018-12-20T12:36:26.748Z,17.17
2018-12-20T12:38:56.404Z,15.23
2018-12-20T12:41:25.475Z,18.67
2018-12-20T12:43:55.012Z,15.63
2018-12-20T12:46:24.719Z,17.20
2018-12-20T12:48:54.360Z,19.73
2018-12-20T12:51:23.363Z,19.23
2018-12-20T12:53:52.833Z,20.37
2018-12-20T12:56:21.827Z,15.67
2018-12-20T12:58:51.028Z,18.90
2018-12-20T13:01:20.355Z,17.97
2018-12-20T13:03:49.443Z,14.07
2018-12-20T13:06:18.568Z,17.20
2018-12-20T13:08:47.728Z,15.50
2018-12-20T13:11:17.338Z,15.90
2018-12-20T13:13:46.335Z,15.13
2018-12-20T13:16:15.329Z,16.60
2018-12-20T13:18:44.325Z,15.97
2018-12-20T13:21:13.322Z,20.77
2018-12-20T13:23:42.428Z,17.97
2018-12-20T13:26:11.518Z,14.57
2018-12-20T13:28:40.607Z,16.90
2018-12-20T13:31:09.592Z,13.97
2018-12-20T13:33:39.575Z,18.57
2018-12-20T13:36:08.832Z,15.60
2018-12-20T13:38:38.749Z,17.30
2018-12-20T13:41:08.568Z,18.50
2018-12-20T13:43:37.635Z,17.93
2018-12-20T13:46:06.623Z,20.23
2018-12-20T13:48:35.727Z,16.13
2018-12-20T13:51:04.954Z,14.97
2018-12-20T13:53:34.259Z,18.80
2018-12-20T13:56:03.460Z,14.20
2018-12-20T13:58:32.765Z,20.40
2018-12-20T14:01:01.868Z,18.33
2018-12-20T14:03:31.612Z,20.77
2018-12-20T14:06:00.721Z,16.70
2018-12-20T14:08:29.724Z,20.00
2018-12-20T14:10:59.175Z,19.00
2018-12-20T14:13:28.274Z,18.63
2018-12-20T14:15:57.919Z,19.47
2018-12-20T14:18:30.873Z,17.63
2018-12-20T14:20:58.127Z,16.60
2018-12-20T14:23:27.224Z,17.90
2018-12-20T14:25:56.425Z,19.37
2018-12-20T14:28:26.240Z,19.13
2018-12-20T14:30:55.280Z,21.57
2018-12-20T14:33:24.540Z,21.80
2018-12-20T14:35:54.251Z,20.97
2018-12-20T14:38:24.079Z,20.57
2018-12-20T14:40:53.062Z,21.47
2018-12-20T14:43:22.058Z,19.43
2018-12-20T14:45:51.567Z,22.07
2018-12-20T14:48:26.497Z,16.50
2018-12-20T14:50:56.430Z,17.17
2018-12-20T14:53:25.383Z,19.10
2018-12-20T14:55:54.406Z,18.33
2018-12-20T14:58:24.271Z,19.57
2018-12-20T15:00:53.267Z,17.67
2018-12-20T15:03:23.228Z,17.27
2018-12-20T15:05:52.436Z,17.67
2018-12-20T15:08:21.534Z,20.90
2018-12-20T15:10:51.195Z,20.70
2018-12-20T15:13:20.270Z,20.93
2018-12-20T15:15:49.291Z,16.30
2018-12-20T15:18:18.396Z,19.03
2018-12-20T15:20:47.949Z,21.60
2018-12-20T15:23:18.173Z,23.73
2018-12-20T15:25:47.578Z,20.13
2018-12-20T15:28:16.983Z,21.27
2018-12-20T15:30:46.307Z,22.17
2018-12-20T15:33:15.271Z,24.87
2018-12-20T15:35:44.599Z,19.80
2018-12-20T15:38:13.708Z,23.40
2018-12-20T15:40:42.783Z,18.13
2018-12-20T15:43:12.085Z,19.30
2018-12-20T15:45:41.271Z,20.87
2018-12-20T15:48:10.491Z,20.20
2018-12-20T15:50:39.695Z,20.70
2018-12-20T15:53:08.685Z,16.30
2018-12-20T15:55:38.192Z,17.13
2018-12-20T15:58:07.598Z,19.37
2018-12-20T16:00:36.900Z,20.40
2018-12-20T16:03:06.102Z,21.00
2018-12-20T16:05:35.073Z,24.33
2018-12-20T16:08:06.760Z,17.67
2018-12-20T16:10:35.855Z,16.97
2018-12-20T16:13:05.361Z,19.23
2018-12-20T16:15:34.562Z,20.03
2018-12-20T16:18:03.660Z,18.87
2018-12-20T16:20:32.743Z,16.53
2018-12-20T16:23:02.267Z,13.87
2018-12-20T16:25:31.569Z,16.00
2018-12-20T16:28:00.639Z,19.07
2018-12-20T16:30:29.766Z,17.43
2018-12-20T16:32:58.864Z,17.00
2018-12-20T16:35:27.839Z,20.20
2018-12-20T16:37:57.062Z,17.23
2018-12-20T16:40:26.895Z,15.43
2018-12-20T16:42:55.880Z,16.40
2018-12-20T16:45:25.075Z,15.27
2018-12-20T16:47:54.276Z,18.93
2018-12-20T16:50:23.373Z,14.27
2018-12-20T16:52:52.907Z,14.83
2018-12-20T16:55:21.982Z,18.13
2018-12-20T16:57:51.078Z,17.27
2018-12-20T17:00:20.176Z,18.17
2018-12-20T17:02:49.356Z,16.30
2018-12-20T17:05:18.914Z,17.77
2018-12-20T17:07:48.290Z,15.90
2018-12-20T17:10:17.295Z,18.33
2018-12-20T17:12:46.487Z,16.50
2018-12-20T17:15:17.530Z,17.40
2018-12-20T17:17:46.615Z,16.87
2018-12-20T17:20:16.141Z,16.97
2018-12-20T17:22:45.952Z,18.63
2018-12-20T17:25:15.049Z,18.43
2018-12-20T17:27:44.558Z,21.50
2018-12-20T17:30:14.195Z,18.30
2018-12-20T17:32:43.295Z,18.50
2018-12-20T17:35:12.366Z,17.90
2018-12-20T17:37:41.363Z,15.30
2018-12-20T17:40:11.411Z,18.63
2018-12-20T17:42:40.583Z,18.20
2018-12-20T17:45:09.782Z,17.67
2018-12-20T17:47:39.700Z,15.53
2018-12-20T17:50:08.773Z,16.03
2018-12-20T17:52:37.897Z,17.70
2018-12-20T17:55:07.076Z,17.00
2018-12-20T17:57:36.195Z,17.63
2018-12-20T18:00:07.800Z,15.03
2018-12-20T18:02:37.053Z,16.87
2018-12-20T18:05:07.415Z,17.87
2018-12-20T18:07:36.548Z,16.07
2018-12-20T18:10:08.137Z,15.53
2018-12-20T18:12:37.131Z,15.57
2018-12-20T18:15:08.207Z,16.60
2018-12-20T18:17:37.419Z,14.57
2018-12-20T18:20:07.805Z,18.30
2018-12-20T18:22:36.920Z,14.90
2018-12-20T18:25:06.003Z,14.47
2018-12-20T18:27:35.099Z,15.30
2018-12-20T18:30:07.787Z,16.90
2018-12-20T18:32:37.082Z,17.37
2018-12-20T18:35:06.420Z,15.53
2018-12-20T18:37:35.547Z,16.90
2018-12-20T18:40:06.451Z,15.93
2018-12-20T18:42:35.431Z,17.33
2018-12-20T18:45:06.464Z,18.43
2018-12-20T18:47:35.501Z,17.10
2018-12-20T18:50:06.709Z,17.73
2018-12-20T18:52:35.667Z,18.57
2018-12-20T18:55:05.212Z,18.73
2018-12-20T18:57:34.395Z,17.43
2018-12-20T19:00:04.459Z,17.77
2018-12-20T19:02:33.563Z,16.03
2018-12-20T19:05:02.660Z,17.00
2018-12-20T19:07:31.759Z,18.97
2018-12-20T19:10:01.611Z,16.90
2018-12-20T19:12:31.050Z,17.33
2018-12-20T19:15:00.459Z,16.00
2018-12-20T19:17:29.564Z,18.13
2018-12-20T19:19:58.857Z,17.83
2018-12-20T19:22:27.957Z,16.53
2018-12-20T19:24:57.772Z,18.20
2018-12-20T19:27:27.016Z,18.60
2018-12-20T19:29:56.377Z,16.43
2018-12-20T19:32:25.466Z,19.53
2018-12-20T19:34:54.573Z,17.93
2018-12-20T19:37:23.570Z,17.47
2018-12-20T19:39:55.230Z,16.50
2018-12-20T19:42:24.325Z,17.40
2018-12-20T19:44:53.323Z,15.07
2018-12-20T19:47:22.523Z,16.47
2018-12-20T19:49:51.724Z,18.93
2018-12-20T19:52:20.719Z,15.83
2018-12-20T19:54:50.332Z,16.80
2018-12-20T19:57:19.327Z,15.20
2018-12-20T19:59:48.404Z,18.10
2018-12-20T20:02:17.728Z,16.80
2018-12-20T20:04:47.339Z,15.83
2018-12-20T20:07:16.437Z,16.93
2018-12-20T20:09:45.741Z,15.60
2018-12-20T20:12:15.044Z,14.23
2018-12-20T20:14:44.660Z,16.27
2018-12-20T20:17:13.856Z,15.73
2018-12-20T20:19:42.811Z,17.20
2018-12-20T20:22:12.052Z,16.93
2018-12-20T20:24:41.254Z,16.33
2018-12-20T20:27:10.249Z,16.90
2018-12-20T20:29:39.760Z,19.00
2018-12-20T20:32:09.164Z,17.83
2018-12-20T20:34:38.261Z,15.53
2018-12-20T20:37:07.361Z,15.43
2018-12-20T20:39:36.972Z,16.43
2018-12-20T20:42:06.047Z,16.10
2018-12-20T20:44:35.271Z,15.80
2018-12-20T20:47:04.370Z,16.37
2018-12-20T20:49:33.775Z,16.23
2018-12-20T20:52:03.705Z,15.93
2018-12-20T20:54:32.694Z,16.07
2018-12-20T20:57:01.684Z,15.60
2018-12-20T20:59:30.681Z,15.33
2018-12-20T21:01:59.985Z,16.57
2018-12-20T21:04:29.185Z,16.03
2018-12-20T21:06:58.283Z,16.93
2018-12-20T21:09:27.280Z,16.40
2018-12-20T21:11:56.587Z,15.50
2018-12-20T21:14:25.711Z,14.33
2018-12-20T21:16:54.882Z,14.27
2018-12-20T21:19:24.623Z,15.47
2018-12-20T21:21:53.796Z,19.07
2018-12-20T21:24:22.871Z,16.67
2018-12-20T21:26:52.016Z,15.27
2018-12-20T21:29:21.201Z,14.40
2018-12-20T21:31:50.423Z,15.03
2018-12-20T21:34:19.392Z,18.30
2018-12-20T21:36:49.031Z,14.80
2018-12-20T21:39:19.022Z,14.50
2018-12-20T21:41:48.427Z,16.50
2018-12-20T21:44:18.241Z,15.93
2018-12-20T21:46:47.327Z,16.93
2018-12-20T21:49:16.549Z,17.63
2018-12-20T21:51:45.786Z,15.67
2018-12-20T21:54:14.943Z,14.00
2018-12-20T21:56:44.245Z,15.53
2018-12-20T21:59:13.367Z,15.90
2018-12-20T22:01:42.341Z,19.87
2018-12-20T22:04:11.752Z,16.00
2018-12-20T22:06:41.291Z,16.87
2018-12-20T22:09:10.458Z,14.90
2018-12-20T22:11:40.066Z,16.63
2018-12-20T22:14:09.881Z,17.50
2018-12-20T22:16:38.978Z,15.50
2018-12-20T22:19:08.078Z,19.20
2018-12-20T22:21:37.111Z,14.87
2018-12-20T22:24:07.167Z,13.83
2018-12-20T22:26:36.808Z,15.07
2018-12-20T22:29:06.006Z,18.50
2018-12-20T22:31:35.075Z,17.27
2018-12-20T22:34:04.305Z,14.50
2018-12-20T22:36:33.443Z,16.97
2018-12-20T22:39:02.601Z,17.17
2018-12-20T22:41:31.543Z,16.23
2018-12-20T22:44:00.654Z,13.73
2018-12-20T22:46:30.003Z,18.87
2018-12-20T22:48:59.074Z,17.87
2018-12-20T22:51:28.713Z,17.57
2018-12-20T22:53:57.626Z,17.97
2018-12-20T22:56:26.591Z,16.47
2018-12-20T22:58:55.559Z,16.20
2018-12-20T23:01:24.674Z,17.80
2018-12-20T23:03:53.897Z,16.77
2018-12-20T23:06:22.893Z,17.00
2018-12-20T23:08:51.889Z,15.20
2018-12-20T23:11:21.555Z,15.73
2018-12-20T23:13:50.805Z,14.93
2018-12-20T23:16:20.003Z,17.43
2018-12-20T23:18:49.305Z,14.83
2018-12-20T23:21:18.510Z,14.67
2018-12-20T23:23:47.550Z,17.07
2018-12-20T23:26:16.909Z,17.07
2018-12-20T23:28:46.827Z,19.13
2018-12-20T23:31:16.233Z,14.33
2018-12-20T23:33:45.423Z,15.27
2018-12-20T23:36:14.429Z,17.43
2018-12-20T23:38:43.721Z,16.70
2018-12-20T23:41:12.830Z,15.33
2018-12-20T23:43:42.646Z,18.43
2018-12-20T23:46:12.461Z,16.77
2018-12-20T23:48:41.558Z,16.13
2018-12-20T23:51:13.803Z,17.53
2018-12-20T23:53:42.417Z,15.97
2018-12-20T23:56:11.650Z,14.93
2018-12-20T23:58:41.433Z,15.53
